sensor_id;sensor_type;location;lat;lon;timestamp;pressure;altitude;pressure_sealevel;temperature;humidity
7940;BME280;4015;48.888;9.226;2024-01-30T00:02:05;156451.38;;;4.78;77.54
7940;BME280;4015;48.888;9.226;2024-01-30T00:04:31;156445.00;;;4.76;77.29
7940;BME280;4015;48.888;9.226;2024-01-30T00:06:56;156390.31;;;4.54;78.14
7940;BME280;4015;48.888;9.226;2024-01-30T00:09:21;156405.56;;;4.60;77.86
7940;BME280;4015;48.888;9.226;2024-01-30T00:11:47;156386.47;;;4.52;78.37
7940;BME280;4015;48.888;9.226;2024-01-30T00:14:12;156464.06;;;4.83;77.19
7940;BME280;4015;48.888;9.226;2024-01-30T00:16:37;156414.47;;;4.64;77.89
7940;BME280;4015;48.888;9.226;2024-01-30T00:19:03;156423.38;;;4.67;77.01
7940;BME280;4015;48.888;9.226;2024-01-30T00:21:28;156424.66;;;4.68;77.48
7940;BME280;4015;48.888;9.226;2024-01-30T00:23:54;156369.91;;;4.46;77.48
7940;BME280;4015;48.888;9.226;2024-01-30T00:26:19;156394.13;;;4.55;77.79
7940;BME280;4015;48.888;9.226;2024-01-30T00:28:45;156410.66;;;4.62;77.47
7940;BME280;4015;48.888;9.226;2024-01-30T00:31:11;156423.38;;;4.67;77.75
7940;BME280;4015;48.888;9.226;2024-01-30T00:33:40;156445.00;;;4.76;77.13
7940;BME280;4015;48.888;9.226;2024-01-30T00:36:07;156453.91;;;4.79;76.74
7940;BME280;4015;48.888;9.226;2024-01-30T00:38:33;156451.38;;;4.78;76.37
7940;BME280;4015;48.888;9.226;2024-01-30T00:40:58;156395.38;;;4.56;77.57
7940;BME280;4015;48.888;9.226;2024-01-30T00:43:23;156399.19;;;4.57;77.32
7940;BME280;4015;48.888;9.226;2024-01-30T00:45:50;156395.38;;;4.56;77.28
7940;BME280;4015;48.888;9.226;2024-01-30T00:48:17;156343.25;;;4.35;77.97
7940;BME280;4015;48.888;9.226;2024-01-30T00:50:42;156329.25;;;4.29;78.15
7940;BME280;4015;48.888;9.226;2024-01-30T00:53:08;156350.84;;;4.38;78.34
7940;BME280;4015;48.888;9.226;2024-01-30T00:55:33;156390.31;;;4.54;76.77
7940;BME280;4015;48.888;9.226;2024-01-30T00:57:58;156367.38;;;4.45;77.40
7940;BME280;4015;48.888;9.226;2024-01-30T01:00:23;156362.31;;;4.43;77.71
7940;BME280;4015;48.888;9.226;2024-01-30T01:02:54;156357.25;;;4.41;78.30
7940;BME280;4015;48.888;9.226;2024-01-30T01:05:19;156278.38;;;4.09;78.77
7940;BME280;4015;48.888;9.226;2024-01-30T01:07:44;156301.25;;;4.18;78.93
7940;BME280;4015;48.888;9.226;2024-01-30T01:10:12;156291.06;;;4.14;78.98
7940;BME280;4015;48.888;9.226;2024-01-30T01:12:39;156319.06;;;4.25;78.09
7940;BME280;4015;48.888;9.226;2024-01-30T01:15:05;156348.31;;;4.37;78.35
7940;BME280;4015;48.888;9.226;2024-01-30T01:17:30;156366.13;;;4.44;77.50
7940;BME280;4015;48.888;9.226;2024-01-30T01:19:55;156341.97;;;4.35;77.51
7940;BME280;4015;48.888;9.226;2024-01-30T01:22:21;156348.31;;;4.37;77.98
7940;BME280;4015;48.888;9.226;2024-01-30T01:24:46;156333.06;;;4.31;77.69
7940;BME280;4015;48.888;9.226;2024-01-30T01:27:11;156338.13;;;4.33;77.73
7940;BME280;4015;48.888;9.226;2024-01-30T01:29:37;156316.53;;;4.24;77.94
7940;BME280;4015;48.888;9.226;2024-01-30T01:32:03;156319.06;;;4.25;78.10
7940;BME280;4015;48.888;9.226;2024-01-30T01:34:28;156291.06;;;4.14;78.76
7940;BME280;4015;48.888;9.226;2024-01-30T01:36:53;156280.91;;;4.10;78.52
7940;BME280;4015;48.888;9.226;2024-01-30T01:39:21;156250.41;;;3.98;79.33
7940;BME280;4015;48.888;9.226;2024-01-30T01:41:47;156261.84;;;4.02;78.97
7940;BME280;4015;48.888;9.226;2024-01-30T01:44:13;156286.00;;;4.12;78.53
7940;BME280;4015;48.888;9.226;2024-01-30T01:46:38;156333.06;;;4.31;77.71
7940;BME280;4015;48.888;9.226;2024-01-30T01:49:05;156343.25;;;4.35;77.66
7940;BME280;4015;48.888;9.226;2024-01-30T01:51:31;156311.44;;;4.22;78.12
7940;BME280;4015;48.888;9.226;2024-01-30T01:54:01;156355.97;;;4.40;77.65
7940;BME280;4015;48.888;9.226;2024-01-30T01:56:27;156227.47;;;3.89;79.61
7940;BME280;4015;48.888;9.226;2024-01-30T01:58:54;156232.59;;;3.91;79.36
7940;BME280;4015;48.888;9.226;2024-01-30T02:01:20;156158.84;;;3.61;80.28
7940;BME280;4015;48.888;9.226;2024-01-30T02:03:46;156191.88;;;3.74;80.28
7940;BME280;4015;48.888;9.226;2024-01-30T02:06:13;156240.19;;;3.94;79.13
7940;BME280;4015;48.888;9.226;2024-01-30T02:08:39;156260.53;;;4.02;79.08
7940;BME280;4015;48.888;9.226;2024-01-30T02:11:04;156185.56;;;3.72;80.53
7940;BME280;4015;48.888;9.226;2024-01-30T02:13:30;156203.34;;;3.79;80.21
7940;BME280;4015;48.888;9.226;2024-01-30T02:15:55;156255.47;;;4.00;79.68
7940;BME280;4015;48.888;9.226;2024-01-30T02:18:20;156269.47;;;4.05;79.15
7940;BME280;4015;48.888;9.226;2024-01-30T02:20:46;156258.00;;;4.01;79.12
7940;BME280;4015;48.888;9.226;2024-01-30T02:23:12;156274.53;;;4.07;79.62
7940;BME280;4015;48.888;9.226;2024-01-30T02:25:40;156254.19;;;3.99;79.84
7940;BME280;4015;48.888;9.226;2024-01-30T02:28:14;156278.38;;;4.09;79.11
7940;BME280;4015;48.888;9.226;2024-01-30T02:30:40;156270.72;;;4.06;79.27
7940;BME280;4015;48.888;9.226;2024-01-30T02:33:05;156223.69;;;3.87;79.35
7940;BME280;4015;48.888;9.226;2024-01-30T02:35:31;156198.22;;;3.77;79.47
7940;BME280;4015;48.888;9.226;2024-01-30T02:37:56;156200.81;;;3.78;79.57
7940;BME280;4015;48.888;9.226;2024-01-30T02:40:22;156165.19;;;3.64;80.46
7940;BME280;4015;48.888;9.226;2024-01-30T02:42:47;156195.69;;;3.76;80.15
7940;BME280;4015;48.888;9.226;2024-01-30T02:45:13;156198.22;;;3.77;79.90
7940;BME280;4015;48.888;9.226;2024-01-30T02:47:39;156172.81;;;3.67;80.01
7940;BME280;4015;48.888;9.226;2024-01-30T02:50:05;156170.28;;;3.66;80.00
7940;BME280;4015;48.888;9.226;2024-01-30T02:52:30;156054.59;;;3.19;82.60
7940;BME280;4015;48.888;9.226;2024-01-30T02:54:55;156106.72;;;3.40;82.36
7940;BME280;4015;48.888;9.226;2024-01-30T02:57:21;156055.84;;;3.20;83.52
7940;BME280;4015;48.888;9.226;2024-01-30T02:59:46;156062.22;;;3.22;83.85
7940;BME280;4015;48.888;9.226;2024-01-30T03:02:11;156074.97;;;3.28;83.20
7940;BME280;4015;48.888;9.226;2024-01-30T03:04:37;156024.09;;;3.07;83.83
7940;BME280;4015;48.888;9.226;2024-01-30T03:07:02;156071.09;;;3.26;83.39
7940;BME280;4015;48.888;9.226;2024-01-30T03:09:28;156087.63;;;3.33;82.17
7940;BME280;4015;48.888;9.226;2024-01-30T03:11:53;156025.34;;;3.08;83.62
7940;BME280;4015;48.888;9.226;2024-01-30T03:14:19;156016.47;;;3.04;83.88
7940;BME280;4015;48.888;9.226;2024-01-30T03:16:44;156055.84;;;3.20;83.14
7940;BME280;4015;48.888;9.226;2024-01-30T03:19:09;156064.78;;;3.23;83.55
7940;BME280;4015;48.888;9.226;2024-01-30T03:21:35;156095.28;;;3.36;82.93
7940;BME280;4015;48.888;9.226;2024-01-30T03:24:00;156081.28;;;3.30;82.53
7940;BME280;4015;48.888;9.226;2024-01-30T03:26:26;156099.06;;;3.37;82.14
7940;BME280;4015;48.888;9.226;2024-01-30T03:28:51;156113.06;;;3.43;82.13
7940;BME280;4015;48.888;9.226;2024-01-30T03:31:16;156085.09;;;3.32;82.09
7940;BME280;4015;48.888;9.226;2024-01-30T03:33:42;156105.47;;;3.40;81.89
7940;BME280;4015;48.888;9.226;2024-01-30T03:36:08;156155.03;;;3.60;81.39
7940;BME280;4015;48.888;9.226;2024-01-30T03:38:34;156157.56;;;3.61;81.04
7940;BME280;4015;48.888;9.226;2024-01-30T03:40:59;156146.13;;;3.56;81.23
7940;BME280;4015;48.888;9.226;2024-01-30T03:43:25;156115.59;;;3.44;81.47
7940;BME280;4015;48.888;9.226;2024-01-30T03:45:50;156128.31;;;3.49;81.74
7940;BME280;4015;48.888;9.226;2024-01-30T03:48:16;156100.34;;;3.38;82.53
7940;BME280;4015;48.888;9.226;2024-01-30T03:50:41;156120.72;;;3.46;81.36
7940;BME280;4015;48.888;9.226;2024-01-30T03:53:06;156097.81;;;3.37;81.52
7940;BME280;4015;48.888;9.226;2024-01-30T03:55:32;156137.25;;;3.53;81.27
7940;BME280;4015;48.888;9.226;2024-01-30T03:57:57;156111.81;;;3.42;81.94
7940;BME280;4015;48.888;9.226;2024-01-30T04:00:22;156074.97;;;3.28;81.71
7940;BME280;4015;48.888;9.226;2024-01-30T04:02:48;156099.06;;;3.37;81.89
7940;BME280;4015;48.888;9.226;2024-01-30T04:05:13;156095.28;;;3.36;81.72
7940;BME280;4015;48.888;9.226;2024-01-30T04:07:39;156137.25;;;3.53;81.01
7940;BME280;4015;48.888;9.226;2024-01-30T04:10:04;156137.25;;;3.53;81.40
7940;BME280;4015;48.888;9.226;2024-01-30T04:12:33;156122.00;;;3.46;81.27
7940;BME280;4015;48.888;9.226;2024-01-30T04:14:58;156083.81;;;3.31;82.07
7940;BME280;4015;48.888;9.226;2024-01-30T04:17:23;156113.06;;;3.43;81.53
7940;BME280;4015;48.888;9.226;2024-01-30T04:19:49;156108.00;;;3.41;81.83
7940;BME280;4015;48.888;9.226;2024-01-30T04:22:14;156108.00;;;3.41;81.47
7940;BME280;4015;48.888;9.226;2024-01-30T04:24:39;156072.38;;;3.27;82.30
7940;BME280;4015;48.888;9.226;2024-01-30T04:27:05;156048.25;;;3.17;82.41
7940;BME280;4015;48.888;9.226;2024-01-30T04:29:30;156024.09;;;3.07;83.10
7940;BME280;4015;48.888;9.226;2024-01-30T04:31:55;156022.81;;;3.07;83.34
7940;BME280;4015;48.888;9.226;2024-01-30T04:34:20;155954.22;;;2.79;84.33
7940;BME280;4015;48.888;9.226;2024-01-30T04:36:46;156011.41;;;3.02;83.81
7940;BME280;4015;48.888;9.226;2024-01-30T04:39:11;156021.53;;;3.06;82.42
7940;BME280;4015;48.888;9.226;2024-01-30T04:41:38;155958.00;;;2.81;83.68
7940;BME280;4015;48.888;9.226;2024-01-30T04:44:03;155998.69;;;2.97;83.33
7940;BME280;4015;48.888;9.226;2024-01-30T04:46:28;155993.56;;;2.95;83.29
7940;BME280;4015;48.888;9.226;2024-01-30T04:48:54;155989.78;;;2.93;82.92
7940;BME280;4015;48.888;9.226;2024-01-30T04:51:19;155983.44;;;2.91;83.58
7940;BME280;4015;48.888;9.226;2024-01-30T04:53:44;156019.00;;;3.05;82.45
7940;BME280;4015;48.888;9.226;2024-01-30T04:56:10;155877.97;;;2.49;84.11
7940;BME280;4015;48.888;9.226;2024-01-30T04:58:35;155932.63;;;2.70;83.71
7940;BME280;4015;48.888;9.226;2024-01-30T05:01:02;155852.56;;;2.38;84.30
7940;BME280;4015;48.888;9.226;2024-01-30T05:03:27;155856.41;;;2.40;84.92
7940;BME280;4015;48.888;9.226;2024-01-30T05:05:52;155923.72;;;2.67;83.60
7940;BME280;4015;48.888;9.226;2024-01-30T05:08:18;155913.53;;;2.63;83.84
7940;BME280;4015;48.888;9.226;2024-01-30T05:10:43;155941.50;;;2.74;82.88
7940;BME280;4015;48.888;9.226;2024-01-30T05:13:08;155921.19;;;2.66;83.14
7940;BME280;4015;48.888;9.226;2024-01-30T05:15:34;155823.38;;;2.27;85.00
7940;BME280;4015;48.888;9.226;2024-01-30T05:17:59;155852.56;;;2.38;84.82
7940;BME280;4015;48.888;9.226;2024-01-30T05:20:24;155848.75;;;2.37;85.27
7940;BME280;4015;48.888;9.226;2024-01-30T05:22:53;155894.50;;;2.55;84.59
7940;BME280;4015;48.888;9.226;2024-01-30T05:25:18;155935.16;;;2.72;83.66
7940;BME280;4015;48.888;9.226;2024-01-30T05:27:44;155890.69;;;2.54;84.06
7940;BME280;4015;48.888;9.226;2024-01-30T05:30:10;155824.66;;;2.27;84.90
7940;BME280;4015;48.888;9.226;2024-01-30T05:32:35;155837.31;;;2.32;85.17
7940;BME280;4015;48.888;9.226;2024-01-30T05:35:01;155828.44;;;2.29;85.85
7940;BME280;4015;48.888;9.226;2024-01-30T05:37:26;155895.75;;;2.56;84.37
7940;BME280;4015;48.888;9.226;2024-01-30T05:39:51;155914.81;;;2.63;84.88
7940;BME280;4015;48.888;9.226;2024-01-30T05:42:16;155900.88;;;2.58;85.05
7940;BME280;4015;48.888;9.226;2024-01-30T05:44:42;155898.28;;;2.57;84.77
7940;BME280;4015;48.888;9.226;2024-01-30T05:47:07;155800.50;;;2.17;86.58
7940;BME280;4015;48.888;9.226;2024-01-30T05:49:33;155830.97;;;2.30;87.13
7940;BME280;4015;48.888;9.226;2024-01-30T05:51:58;155801.75;;;2.18;87.53
7940;BME280;4015;48.888;9.226;2024-01-30T05:54:23;155848.75;;;2.37;86.56
7940;BME280;4015;48.888;9.226;2024-01-30T05:56:48;155851.28;;;2.38;86.97
7940;BME280;4015;48.888;9.226;2024-01-30T05:59:14;155875.44;;;2.48;87.07
7940;BME280;4015;48.888;9.226;2024-01-30T06:01:48;155844.97;;;2.35;87.19
7940;BME280;4015;48.888;9.226;2024-01-30T06:04:14;155808.13;;;2.21;87.06
7940;BME280;4015;48.888;9.226;2024-01-30T06:06:39;155787.78;;;2.12;88.06
7940;BME280;4015;48.888;9.226;2024-01-30T06:09:05;155820.81;;;2.26;87.58
7940;BME280;4015;48.888;9.226;2024-01-30T06:11:30;155830.97;;;2.30;87.12
7940;BME280;4015;48.888;9.226;2024-01-30T06:13:56;155888.16;;;2.53;87.36
7940;BME280;4015;48.888;9.226;2024-01-30T06:16:21;155870.38;;;2.46;86.46
7940;BME280;4015;48.888;9.226;2024-01-30T06:18:48;155834.78;;;2.31;86.98
7940;BME280;4015;48.888;9.226;2024-01-30T06:21:13;155825.91;;;2.28;87.33
7940;BME280;4015;48.888;9.226;2024-01-30T06:23:39;155908.47;;;2.61;86.72
7940;BME280;4015;48.888;9.226;2024-01-30T06:26:06;155871.66;;;2.46;85.92
7940;BME280;4015;48.888;9.226;2024-01-30T06:28:31;155891.97;;;2.54;85.77
7940;BME280;4015;48.888;9.226;2024-01-30T06:30:57;155905.94;;;2.60;85.71
7940;BME280;4015;48.888;9.226;2024-01-30T06:33:22;155880.50;;;2.50;85.36
7940;BME280;4015;48.888;9.226;2024-01-30T06:35:47;155876.72;;;2.48;85.08
7940;BME280;4015;48.888;9.226;2024-01-30T06:38:13;155904.66;;;2.59;85.70
7940;BME280;4015;48.888;9.226;2024-01-30T06:40:38;155914.81;;;2.63;85.07
7940;BME280;4015;48.888;9.226;2024-01-30T06:43:04;155956.75;;;2.80;84.58
7940;BME280;4015;48.888;9.226;2024-01-30T06:45:30;155940.22;;;2.74;84.65
7940;BME280;4015;48.888;9.226;2024-01-30T06:47:55;155937.69;;;2.73;84.44
7940;BME280;4015;48.888;9.226;2024-01-30T06:50:20;155938.97;;;2.73;84.34
7940;BME280;4015;48.888;9.226;2024-01-30T06:52:46;155902.13;;;2.58;84.62
7940;BME280;4015;48.888;9.226;2024-01-30T06:55:11;155889.44;;;2.53;84.66
7940;BME280;4015;48.888;9.226;2024-01-30T06:57:36;155856.41;;;2.40;85.65
7940;BME280;4015;48.888;9.226;2024-01-30T07:00:02;155855.13;;;2.39;86.39
7940;BME280;4015;48.888;9.226;2024-01-30T07:02:28;155872.91;;;2.47;85.83
7940;BME280;4015;48.888;9.226;2024-01-30T07:04:53;155853.88;;;2.39;85.74
7940;BME280;4015;48.888;9.226;2024-01-30T07:07:18;155860.19;;;2.41;86.51
7940;BME280;4015;48.888;9.226;2024-01-30T07:09:44;155890.69;;;2.54;85.61
7940;BME280;4015;48.888;9.226;2024-01-30T07:12:09;155908.47;;;2.61;85.55
7940;BME280;4015;48.888;9.226;2024-01-30T07:14:35;155960.53;;;2.82;84.89
7940;BME280;4015;48.888;9.226;2024-01-30T07:17:00;155966.94;;;2.84;84.24
7940;BME280;4015;48.888;9.226;2024-01-30T07:19:26;155958.00;;;2.81;84.23
7940;BME280;4015;48.888;9.226;2024-01-30T07:21:51;155954.22;;;2.79;84.73
7940;BME280;4015;48.888;9.226;2024-01-30T07:24:16;156003.75;;;2.99;83.85
7940;BME280;4015;48.888;9.226;2024-01-30T07:26:42;156043.19;;;3.15;83.46
7940;BME280;4015;48.888;9.226;2024-01-30T07:29:07;156063.50;;;3.23;83.31
7940;BME280;4015;48.888;9.226;2024-01-30T07:31:32;156108.00;;;3.41;82.69
7940;BME280;4015;48.888;9.226;2024-01-30T07:33:58;156166.44;;;3.64;82.09
7940;BME280;4015;48.888;9.226;2024-01-30T07:36:23;156176.63;;;3.68;81.09
7940;BME280;4015;48.888;9.226;2024-01-30T07:38:48;156210.94;;;3.82;80.80
7940;BME280;4015;48.888;9.226;2024-01-30T07:41:14;156249.13;;;3.97;80.20
7940;BME280;4015;48.888;9.226;2024-01-30T07:43:39;156283.47;;;4.11;79.48
7940;BME280;4015;48.888;9.226;2024-01-30T07:46:04;156277.13;;;4.09;79.80
7940;BME280;4015;48.888;9.226;2024-01-30T07:48:32;156297.44;;;4.17;79.47
7940;BME280;4015;48.888;9.226;2024-01-30T07:50:59;156196.97;;;3.76;80.24
7940;BME280;4015;48.888;9.226;2024-01-30T07:53:25;156181.69;;;3.70;81.21
7940;BME280;4015;48.888;9.226;2024-01-30T07:55:50;156203.34;;;3.79;80.69
7940;BME280;4015;48.888;9.226;2024-01-30T07:58:16;156258.00;;;4.01;80.77
7940;BME280;4015;48.888;9.226;2024-01-30T08:00:41;156219.88;;;3.86;80.67
7940;BME280;4015;48.888;9.226;2024-01-30T08:03:06;156264.38;;;4.03;79.80
7940;BME280;4015;48.888;9.226;2024-01-30T08:05:32;156377.56;;;4.49;79.22
7940;BME280;4015;48.888;9.226;2024-01-30T08:07:57;156511.16;;;5.02;77.43
7940;BME280;4015;48.888;9.226;2024-01-30T08:10:22;156613.00;;;5.43;76.44
7940;BME280;4015;48.888;9.226;2024-01-30T08:12:47;156641.03;;;5.54;74.29
7940;BME280;4015;48.888;9.226;2024-01-30T08:15:13;156709.75;;;5.82;73.99
7940;BME280;4015;48.888;9.226;2024-01-30T08:17:38;156907.25;;;6.61;71.34
7940;BME280;4015;48.888;9.226;2024-01-30T08:20:04;157130.25;;;7.50;69.61
7940;BME280;4015;48.888;9.226;2024-01-30T08:22:30;157220.78;;;7.86;66.63
7940;BME280;4015;48.888;9.226;2024-01-30T08:24:55;157248.81;;;7.97;66.29
7940;BME280;4015;48.888;9.226;2024-01-30T08:27:21;157433.81;;;8.71;64.28
7940;BME280;4015;48.888;9.226;2024-01-30T08:29:46;157430.00;;;8.70;64.51
7940;BME280;4015;48.888;9.226;2024-01-30T08:32:11;157698.00;;;9.77;62.45
7940;BME280;4015;48.888;9.226;2024-01-30T08:34:37;157486.09;;;8.92;63.96
7940;BME280;4015;48.888;9.226;2024-01-30T08:37:02;157377.72;;;8.49;64.16
7940;BME280;4015;48.888;9.226;2024-01-30T08:39:28;157525.69;;;9.08;64.56
7940;BME280;4015;48.888;9.226;2024-01-30T08:41:53;157631.63;;;9.50;62.21
7940;BME280;4015;48.888;9.226;2024-01-30T08:44:19;157590.78;;;9.34;61.09
7940;BME280;4015;48.888;9.226;2024-01-30T08:46:44;157788.69;;;10.13;60.38
7940;BME280;4015;48.888;9.226;2024-01-30T08:49:11;158050.56;;;11.17;57.50
7940;BME280;4015;48.888;9.226;2024-01-30T08:51:38;158306.25;;;12.19;55.18
7940;BME280;4015;48.888;9.226;2024-01-30T08:54:03;158443.13;;;12.74;53.43
7940;BME280;4015;48.888;9.226;2024-01-30T08:56:29;158064.63;;;11.23;55.61
7940;BME280;4015;48.888;9.226;2024-01-30T08:58:54;158257.69;;;12.00;54.20
7940;BME280;4015;48.888;9.226;2024-01-30T09:01:19;158395.78;;;12.55;53.62
7940;BME280;4015;48.888;9.226;2024-01-30T09:03:45;158160.47;;;11.61;54.91
7940;BME280;4015;48.888;9.226;2024-01-30T09:06:11;158276.91;;;12.07;53.80
7940;BME280;4015;48.888;9.226;2024-01-30T09:08:37;158174.53;;;11.67;54.95
7940;BME280;4015;48.888;9.226;2024-01-30T09:11:13;157947.09;;;10.76;56.99
7940;BME280;4015;48.888;9.226;2024-01-30T09:13:39;157934.31;;;10.71;56.98
7940;BME280;4015;48.888;9.226;2024-01-30T09:16:05;157752.88;;;9.98;59.18
7940;BME280;4015;48.888;9.226;2024-01-30T09:18:31;157705.66;;;9.80;59.39
7940;BME280;4015;48.888;9.226;2024-01-30T09:20:56;157713.34;;;9.83;59.67
7940;BME280;4015;48.888;9.226;2024-01-30T09:23:22;157699.28;;;9.77;60.85
7940;BME280;4015;48.888;9.226;2024-01-30T09:25:47;157841.06;;;10.34;59.12
7940;BME280;4015;48.888;9.226;2024-01-30T09:28:13;157884.50;;;10.51;58.78
7940;BME280;4015;48.888;9.226;2024-01-30T09:30:38;157985.41;;;10.91;57.27
7940;BME280;4015;48.888;9.226;2024-01-30T09:33:05;158063.34;;;11.22;56.57
7940;BME280;4015;48.888;9.226;2024-01-30T09:35:30;158122.16;;;11.46;56.59
7940;BME280;4015;48.888;9.226;2024-01-30T09:37:56;158344.66;;;12.34;55.47
7940;BME280;4015;48.888;9.226;2024-01-30T09:40:22;158629.97;;;13.48;52.23
7940;BME280;4015;48.888;9.226;2024-01-30T09:42:50;158695.22;;;13.74;50.90
7940;BME280;4015;48.888;9.226;2024-01-30T09:45:17;158409.88;;;12.60;52.76
7940;BME280;4015;48.888;9.226;2024-01-30T09:47:44;158573.66;;;13.26;53.07
7940;BME280;4015;48.888;9.226;2024-01-30T09:50:11;158769.50;;;14.03;50.59
7940;BME280;4015;48.888;9.226;2024-01-30T09:52:36;158710.59;;;13.80;50.55
7940;BME280;4015;48.888;9.226;2024-01-30T09:55:03;158663.25;;;13.61;50.61
7940;BME280;4015;48.888;9.226;2024-01-30T09:57:29;158622.25;;;13.45;50.89
7940;BME280;4015;48.888;9.226;2024-01-30T09:59:54;158517.31;;;13.03;53.14
7940;BME280;4015;48.888;9.226;2024-01-30T10:02:20;158284.53;;;12.10;53.91
7940;BME280;4015;48.888;9.226;2024-01-30T10:04:49;158444.41;;;12.74;53.69
7940;BME280;4015;48.888;9.226;2024-01-30T10:07:15;158679.88;;;13.68;51.82
7940;BME280;4015;48.888;9.226;2024-01-30T10:09:40;158764.34;;;14.01;51.75
7940;BME280;4015;48.888;9.226;2024-01-30T10:12:06;158887.31;;;14.50;49.64
7940;BME280;4015;48.888;9.226;2024-01-30T10:14:32;159033.34;;;15.08;48.43
7940;BME280;4015;48.888;9.226;2024-01-30T10:16:58;158932.13;;;14.68;49.10
7940;BME280;4015;48.888;9.226;2024-01-30T10:19:23;158764.34;;;14.01;50.97
7940;BME280;4015;48.888;9.226;2024-01-30T10:21:49;158524.97;;;13.06;52.95
7940;BME280;4015;48.888;9.226;2024-01-30T10:24:14;158438.03;;;12.72;54.10
7940;BME280;4015;48.888;9.226;2024-01-30T10:26:40;158446.94;;;12.75;54.64
7940;BME280;4015;48.888;9.226;2024-01-30T10:29:06;158536.50;;;13.11;53.98
7940;BME280;4015;48.888;9.226;2024-01-30T10:31:32;158558.25;;;13.19;53.29
7940;BME280;4015;48.888;9.226;2024-01-30T10:33:57;158550.59;;;13.16;54.28
7940;BME280;4015;48.888;9.226;2024-01-30T10:36:28;158358.72;;;12.40;56.07
7940;BME280;4015;48.888;9.226;2024-01-30T10:38:56;158321.59;;;12.25;56.80
7940;BME280;4015;48.888;9.226;2024-01-30T10:41:26;158509.63;;;13.00;54.44
7940;BME280;4015;48.888;9.226;2024-01-30T10:44:12;158331.84;;;12.29;55.29
7940;BME280;4015;48.888;9.226;2024-01-30T10:46:42;158413.69;;;12.62;56.68
7940;BME280;4015;48.888;9.226;2024-01-30T10:49:11;158365.09;;;12.42;57.14
7940;BME280;4015;48.888;9.226;2024-01-30T10:51:39;158527.53;;;13.07;55.58
7940;BME280;4015;48.888;9.226;2024-01-30T10:54:05;158421.41;;;12.65;56.07
7940;BME280;4015;48.888;9.226;2024-01-30T10:56:32;158485.34;;;12.90;55.69
7940;BME280;4015;48.888;9.226;2024-01-30T10:58:58;158501.97;;;12.97;56.49
7940;BME280;4015;48.888;9.226;2024-01-30T11:01:24;158397.06;;;12.55;56.47
7940;BME280;4015;48.888;9.226;2024-01-30T11:03:51;158394.53;;;12.54;56.27
7940;BME280;4015;48.888;9.226;2024-01-30T11:06:17;158394.53;;;12.54;56.46
7940;BME280;4015;48.888;9.226;2024-01-30T11:08:45;158476.38;;;12.87;55.44
7940;BME280;4015;48.888;9.226;2024-01-30T11:11:11;158390.69;;;12.53;56.67
7940;BME280;4015;48.888;9.226;2024-01-30T11:13:36;158531.41;;;13.09;54.64
7940;BME280;4015;48.888;9.226;2024-01-30T11:16:05;158591.59;;;13.33;54.54
7940;BME280;4015;48.888;9.226;2024-01-30T11:18:32;158581.34;;;13.29;54.65
7940;BME280;4015;48.888;9.226;2024-01-30T11:20:59;158555.69;;;13.18;55.43
7940;BME280;4015;48.888;9.226;2024-01-30T11:23:27;158521.16;;;13.05;55.47
7940;BME280;4015;48.888;9.226;2024-01-30T11:25:54;158394.53;;;12.54;56.93
7940;BME280;4015;48.888;9.226;2024-01-30T11:28:21;158499.44;;;12.96;55.91
7940;BME280;4015;48.888;9.226;2024-01-30T11:30:47;158530.13;;;13.08;55.37
7940;BME280;4015;48.888;9.226;2024-01-30T11:33:27;158605.63;;;13.38;54.12
7940;BME280;4015;48.888;9.226;2024-01-30T11:35:53;158427.78;;;12.67;55.81
7940;BME280;4015;48.888;9.226;2024-01-30T11:38:18;158408.59;;;12.60;55.37
7940;BME280;4015;48.888;9.226;2024-01-30T11:40:44;158417.56;;;12.63;56.11
7940;BME280;4015;48.888;9.226;2024-01-30T11:43:09;158362.56;;;12.41;57.40
7940;BME280;4015;48.888;9.226;2024-01-30T11:45:35;158472.53;;;12.85;56.38
7940;BME280;4015;48.888;9.226;2024-01-30T11:48:02;158555.69;;;13.18;55.13
7940;BME280;4015;48.888;9.226;2024-01-30T11:50:31;158546.75;;;13.15;55.34
7940;BME280;4015;48.888;9.226;2024-01-30T11:52:56;158453.38;;;12.78;55.75
7940;BME280;4015;48.888;9.226;2024-01-30T11:55:23;158510.91;;;13.01;56.05
7940;BME280;4015;48.888;9.226;2024-01-30T11:57:48;158481.53;;;12.89;56.76
7940;BME280;4015;48.888;9.226;2024-01-30T12:00:15;158567.28;;;13.23;56.20
7940;BME280;4015;48.888;9.226;2024-01-30T12:02:41;158695.22;;;13.74;55.39
7940;BME280;4015;48.888;9.226;2024-01-30T12:05:07;158697.78;;;13.75;54.98
7940;BME280;4015;48.888;9.226;2024-01-30T12:07:33;158581.34;;;13.29;55.96
7940;BME280;4015;48.888;9.226;2024-01-30T12:09:59;158642.78;;;13.53;56.13
7940;BME280;4015;48.888;9.226;2024-01-30T12:12:25;158589.00;;;13.32;56.67
7940;BME280;4015;48.888;9.226;2024-01-30T12:14:51;158526.25;;;13.07;56.35
7940;BME280;4015;48.888;9.226;2024-01-30T12:17:30;158436.75;;;12.71;57.26
7940;BME280;4015;48.888;9.226;2024-01-30T12:20:09;158509.63;;;13.00;57.12
7940;BME280;4015;48.888;9.226;2024-01-30T12:22:47;158566.00;;;13.22;56.41
7940;BME280;4015;48.888;9.226;2024-01-30T12:25:14;158562.16;;;13.21;56.72
7940;BME280;4015;48.888;9.226;2024-01-30T12:27:42;158519.88;;;13.04;57.25
7940;BME280;4015;48.888;9.226;2024-01-30T12:30:12;158533.97;;;13.10;57.52
7940;BME280;4015;48.888;9.226;2024-01-30T12:32:43;158612.06;;;13.41;56.34
7940;BME280;4015;48.888;9.226;2024-01-30T12:35:13;158610.78;;;13.40;56.45
7940;BME280;4015;48.888;9.226;2024-01-30T12:37:39;158589.00;;;13.32;56.92
7940;BME280;4015;48.888;9.226;2024-01-30T12:40:05;158576.25;;;13.27;56.31
7940;BME280;4015;48.888;9.226;2024-01-30T12:42:34;158684.97;;;13.70;56.02
7940;BME280;4015;48.888;9.226;2024-01-30T12:45:01;158644.06;;;13.54;55.96
7940;BME280;4015;48.888;9.226;2024-01-30T12:47:27;158605.63;;;13.38;56.90
7940;BME280;4015;48.888;9.226;2024-01-30T12:49:52;158641.50;;;13.53;56.22
7940;BME280;4015;48.888;9.226;2024-01-30T12:52:21;158772.03;;;14.04;55.18
7940;BME280;4015;48.888;9.226;2024-01-30T12:54:47;158874.44;;;14.45;54.77
7940;BME280;4015;48.888;9.226;2024-01-30T12:57:12;159041.00;;;15.11;53.78
7940;BME280;4015;48.888;9.226;2024-01-30T12:59:38;159117.88;;;15.42;53.43
7940;BME280;4015;48.888;9.226;2024-01-30T13:02:04;159266.56;;;16.01;53.28
7940;BME280;4015;48.888;9.226;2024-01-30T13:04:29;159520.44;;;17.02;51.28
7940;BME280;4015;48.888;9.226;2024-01-30T13:06:55;159460.16;;;16.78;50.55
7940;BME280;4015;48.888;9.226;2024-01-30T13:09:20;159399.88;;;16.54;50.28
7940;BME280;4015;48.888;9.226;2024-01-30T13:11:46;159266.56;;;16.01;51.32